sensor_id;sensor_type;location;lat;lon;timestamp;P1;durP1;ratioP1;P2;durP2;ratioP2
61025;SDS011;46911;32.650;-16.902;2023-03-13T00:00:40;27.42;;;4.50;;
61025;SDS011;46911;32.650;-16.902;2023-03-13T00:02:44;19.33;;;4.35;;
61025;SDS011;46911;32.650;-16.902;2023-03-13T00:04:44;21.67;;;4.80;;
61025;SDS011;46911;32.650;-16.902;2023-03-13T00:06:45;20.70;;;4.85;;
61025;SDS011;46911;32.650;-16.902;2023-03-13T00:08:46;14.60;;;4.25;;
61025;SDS011;46911;32.650;-16.902;2023-03-13T00:10:50;17.13;;;4.57;;
61025;SDS011;46911;32.650;-16.902;2023-03-13T00:12:51;25.73;;;5.30;;
61025;SDS011;46911;32.650;-16.902;2023-03-13T00:14:52;22.33;;;4.75;;
61025;SDS011;46911;32.650;-16.902;2023-03-13T00:16:53;23.27;;;5.40;;
61025;SDS011;46911;32.650;-16.902;2023-03-13T00:18:54;17.00;;;4.47;;
61025;SDS011;46911;32.650;-16.902;2023-03-13T00:21:01;21.63;;;4.68;;
61025;SDS011;46911;32.650;-16.902;2023-03-13T00:23:09;26.92;;;4.38;;
61025;SDS011;46911;32.650;-16.902;2023-03-13T00:25:10;18.15;;;4.70;;
61025;SDS011;46911;32.650;-16.902;2023-03-13T00:27:11;22.80;;;5.13;;
61025;SDS011;46911;32.650;-16.902;2023-03-13T00:29:12;17.52;;;4.65;;
61025;SDS011;46911;32.650;-16.902;2023-03-13T00:31:19;17.48;;;4.53;;
61025;SDS011;46911;32.650;-16.902;2023-03-13T00:33:23;24.02;;;4.80;;
61025;SDS011;46911;32.650;-16.902;2023-03-13T00:35:27;22.15;;;5.22;;
61025;SDS011;46911;32.650;-16.902;2023-03-13T00:37:32;19.35;;;4.57;;
61025;SDS011;46911;32.650;-16.902;2023-03-13T00:39:33;20.08;;;5.25;;
61025;SDS011;46911;32.650;-16.902;2023-03-13T00:41:36;22.27;;;5.07;;
61025;SDS011;46911;32.650;-16.902;2023-03-13T00:43:39;21.65;;;4.85;;
61025;SDS011;46911;32.650;-16.902;2023-03-13T00:45:44;19.00;;;4.28;;
61025;SDS011;46911;32.650;-16.902;2023-03-13T00:47:47;12.65;;;3.58;;
61025;SDS011;46911;32.650;-16.902;2023-03-13T00:49:49;20.80;;;3.95;;
61025;SDS011;46911;32.650;-16.902;2023-03-13T00:51:52;11.00;;;3.53;;
61025;SDS011;46911;32.650;-16.902;2023-03-13T00:53:56;23.55;;;3.60;;
61025;SDS011;46911;32.650;-16.902;2023-03-13T00:56:02;15.90;;;3.15;;
61025;SDS011;46911;32.650;-16.902;2023-03-13T00:58:06;10.98;;;2.92;;
61025;SDS011;46911;32.650;-16.902;2023-03-13T01:00:10;12.70;;;3.17;;
61025;SDS011;46911;32.650;-16.902;2023-03-13T01:02:13;17.25;;;3.40;;
61025;SDS011;46911;32.650;-16.902;2023-03-13T01:04:17;16.88;;;3.65;;
61025;SDS011;46911;32.650;-16.902;2023-03-13T01:06:19;16.27;;;3.42;;
61025;SDS011;46911;32.650;-16.902;2023-03-13T01:08:25;11.70;;;3.40;;
61025;SDS011;46911;32.650;-16.902;2023-03-13T01:10:30;24.63;;;5.45;;
61025;SDS011;46911;32.650;-16.902;2023-03-13T01:12:31;17.15;;;3.75;;
61025;SDS011;46911;32.650;-16.902;2023-03-13T01:14:32;23.13;;;4.90;;
61025;SDS011;46911;32.650;-16.902;2023-03-13T01:16:35;16.90;;;3.80;;
61025;SDS011;46911;32.650;-16.902;2023-03-13T01:18:40;25.65;;;3.58;;
61025;SDS011;46911;32.650;-16.902;2023-03-13T01:20:45;14.07;;;4.07;;
61025;SDS011;46911;32.650;-16.902;2023-03-13T01:22:48;15.50;;;3.45;;
61025;SDS011;46911;32.650;-16.902;2023-03-13T01:24:52;16.35;;;3.60;;
61025;SDS011;46911;32.650;-16.902;2023-03-13T01:26:53;10.10;;;3.17;;
61025;SDS011;46911;32.650;-16.902;2023-03-13T01:28:59;14.45;;;3.75;;
61025;SDS011;46911;32.650;-16.902;2023-03-13T01:31:01;17.05;;;3.55;;
61025;SDS011;46911;32.650;-16.902;2023-03-13T01:33:20;16.45;;;3.45;;
61025;SDS011;46911;32.650;-16.902;2023-03-13T01:35:21;15.43;;;3.20;;
61025;SDS011;46911;32.650;-16.902;2023-03-13T01:37:22;18.08;;;3.60;;
61025;SDS011;46911;32.650;-16.902;2023-03-13T01:39:25;19.05;;;3.38;;
61025;SDS011;46911;32.650;-16.902;2023-03-13T01:41:29;13.70;;;3.15;;
61025;SDS011;46911;32.650;-16.902;2023-03-13T01:43:33;20.30;;;3.40;;
61025;SDS011;46911;32.650;-16.902;2023-03-13T01:48:18;14.85;;;2.72;;
61025;SDS011;46911;32.650;-16.902;2023-03-13T01:50:22;12.45;;;2.65;;
61025;SDS011;46911;32.650;-16.902;2023-03-13T01:52:31;16.75;;;2.67;;
61025;SDS011;46911;32.650;-16.902;2023-03-13T01:56:48;10.07;;;2.55;;
61025;SDS011;46911;32.650;-16.902;2023-03-13T01:58:56;12.48;;;2.90;;
61025;SDS011;46911;32.650;-16.902;2023-03-13T02:01:01;11.82;;;3.08;;
61025;SDS011;46911;32.650;-16.902;2023-03-13T02:03:05;11.52;;;2.72;;
61025;SDS011;46911;32.650;-16.902;2023-03-13T02:05:15;19.83;;;3.83;;
61025;SDS011;46911;32.650;-16.902;2023-03-13T02:07:22;17.45;;;3.17;;
61025;SDS011;46911;32.650;-16.902;2023-03-13T02:09:29;14.57;;;2.53;;
61025;SDS011;46911;32.650;-16.902;2023-03-13T02:11:47;15.52;;;3.10;;
61025;SDS011;46911;32.650;-16.902;2023-03-13T02:13:50;16.23;;;3.35;;
61025;SDS011;46911;32.650;-16.902;2023-03-13T02:15:55;14.95;;;3.15;;
61025;SDS011;46911;32.650;-16.902;2023-03-13T02:17:57;12.20;;;2.90;;
61025;SDS011;46911;32.650;-16.902;2023-03-13T02:20:05;25.48;;;3.97;;
61025;SDS011;46911;32.650;-16.902;2023-03-13T02:24:36;23.38;;;3.63;;
61025;SDS011;46911;32.650;-16.902;2023-03-13T02:26:54;24.52;;;3.22;;
61025;SDS011;46911;32.650;-16.902;2023-03-13T02:28:57;19.02;;;3.00;;
61025;SDS011;46911;32.650;-16.902;2023-03-13T02:31:01;15.68;;;4.20;;
61025;SDS011;46911;32.650;-16.902;2023-03-13T02:33:06;15.00;;;3.30;;
61025;SDS011;46911;32.650;-16.902;2023-03-13T02:35:09;21.40;;;3.63;;
61025;SDS011;46911;32.650;-16.902;2023-03-13T02:37:16;25.15;;;4.13;;
61025;SDS011;46911;32.650;-16.902;2023-03-13T02:39:19;18.23;;;3.33;;
61025;SDS011;46911;32.650;-16.902;2023-03-13T02:41:25;25.77;;;3.35;;
61025;SDS011;46911;32.650;-16.902;2023-03-13T02:43:33;18.30;;;3.90;;
61025;SDS011;46911;32.650;-16.902;2023-03-13T02:45:36;22.35;;;3.90;;
61025;SDS011;46911;32.650;-16.902;2023-03-13T02:47:41;12.55;;;3.53;;
61025;SDS011;46911;32.650;-16.902;2023-03-13T02:49:43;23.10;;;3.75;;
61025;SDS011;46911;32.650;-16.902;2023-03-13T02:51:50;16.08;;;3.25;;
61025;SDS011;46911;32.650;-16.902;2023-03-13T02:53:54;14.38;;;3.00;;
61025;SDS011;46911;32.650;-16.902;2023-03-13T02:56:01;18.42;;;3.92;;
61025;SDS011;46911;32.650;-16.902;2023-03-13T02:58:04;20.05;;;3.33;;
61025;SDS011;46911;32.650;-16.902;2023-03-13T03:00:10;23.98;;;4.40;;
61025;SDS011;46911;32.650;-16.902;2023-03-13T03:02:16;14.15;;;4.10;;
61025;SDS011;46911;32.650;-16.902;2023-03-13T03:04:18;26.40;;;4.85;;
61025;SDS011;46911;32.650;-16.902;2023-03-13T03:06:27;22.05;;;5.63;;
61025;SDS011;46911;32.650;-16.902;2023-03-13T03:08:31;13.90;;;3.80;;
61025;SDS011;46911;32.650;-16.902;2023-03-13T03:10:34;15.70;;;4.45;;
61025;SDS011;46911;32.650;-16.902;2023-03-13T03:12:38;19.85;;;3.95;;
61025;SDS011;46911;32.650;-16.902;2023-03-13T03:14:39;15.90;;;4.50;;
61025;SDS011;46911;32.650;-16.902;2023-03-13T03:16:40;19.17;;;3.60;;
61025;SDS011;46911;32.650;-16.902;2023-03-13T03:18:48;20.80;;;3.72;;
61025;SDS011;46911;32.650;-16.902;2023-03-13T03:20:53;21.58;;;4.10;;
61025;SDS011;46911;32.650;-16.902;2023-03-13T03:22:54;14.45;;;2.85;;
61025;SDS011;46911;32.650;-16.902;2023-03-13T03:24:55;19.15;;;3.58;;
61025;SDS011;46911;32.650;-16.902;2023-03-13T03:27:01;15.18;;;2.95;;
61025;SDS011;46911;32.650;-16.902;2023-03-13T03:29:13;12.50;;;2.70;;
61025;SDS011;46911;32.650;-16.902;2023-03-13T03:31:17;12.25;;;3.42;;
61025;SDS011;46911;32.650;-16.902;2023-03-13T03:33:22;8.00;;;2.33;;
61025;SDS011;46911;32.650;-16.902;2023-03-13T03:35:28;16.52;;;3.55;;
61025;SDS011;46911;32.650;-16.902;2023-03-13T03:37:35;8.95;;;3.30;;
61025;SDS011;46911;32.650;-16.902;2023-03-13T03:39:37;17.88;;;3.35;;
61025;SDS011;46911;32.650;-16.902;2023-03-13T03:41:43;22.23;;;4.40;;
61025;SDS011;46911;32.650;-16.902;2023-03-13T03:43:45;15.85;;;2.90;;
61025;SDS011;46911;32.650;-16.902;2023-03-13T03:45:49;24.90;;;3.65;;
61025;SDS011;46911;32.650;-16.902;2023-03-13T03:47:51;13.93;;;3.75;;
61025;SDS011;46911;32.650;-16.902;2023-03-13T03:49:52;12.05;;;4.07;;
61025;SDS011;46911;32.650;-16.902;2023-03-13T03:51:55;17.90;;;3.75;;
61025;SDS011;46911;32.650;-16.902;2023-03-13T03:54:03;18.27;;;3.65;;
61025;SDS011;46911;32.650;-16.902;2023-03-13T03:56:06;21.00;;;4.22;;
61025;SDS011;46911;32.650;-16.902;2023-03-13T03:58:15;19.05;;;3.38;;
61025;SDS011;46911;32.650;-16.902;2023-03-13T04:00:33;19.52;;;3.35;;
61025;SDS011;46911;32.650;-16.902;2023-03-13T04:02:34;15.13;;;3.63;;
61025;SDS011;46911;32.650;-16.902;2023-03-13T04:04:38;20.90;;;3.15;;
61025;SDS011;46911;32.650;-16.902;2023-03-13T04:06:52;18.48;;;3.92;;
61025;SDS011;46911;32.650;-16.902;2023-03-13T04:08:55;15.88;;;2.70;;
61025;SDS011;46911;32.650;-16.902;2023-03-13T04:11:00;27.80;;;3.92;;
61025;SDS011;46911;32.650;-16.902;2023-03-13T04:13:10;19.50;;;3.13;;
61025;SDS011;46911;32.650;-16.902;2023-03-13T04:15:19;22.20;;;3.78;;
61025;SDS011;46911;32.650;-16.902;2023-03-13T04:17:20;17.90;;;3.47;;
61025;SDS011;46911;32.650;-16.902;2023-03-13T04:19:21;22.77;;;3.58;;
61025;SDS011;46911;32.650;-16.902;2023-03-13T04:21:24;20.45;;;3.92;;
61025;SDS011;46911;32.650;-16.902;2023-03-13T04:23:41;20.83;;;3.10;;
61025;SDS011;46911;32.650;-16.902;2023-03-13T04:25:46;18.08;;;4.35;;
61025;SDS011;46911;32.650;-16.902;2023-03-13T04:27:47;14.60;;;3.08;;
61025;SDS011;46911;32.650;-16.902;2023-03-13T04:29:48;18.42;;;3.72;;
61025;SDS011;46911;32.650;-16.902;2023-03-13T04:32:10;16.42;;;3.08;;
61025;SDS011;46911;32.650;-16.902;2023-03-13T04:34:38;16.10;;;2.85;;
61025;SDS011;46911;32.650;-16.902;2023-03-13T04:36:49;10.13;;;2.88;;
61025;SDS011;46911;32.650;-16.902;2023-03-13T04:39:08;7.43;;;2.90;;
61025;SDS011;46911;32.650;-16.902;2023-03-13T04:41:39;17.55;;;3.28;;
61025;SDS011;46911;32.650;-16.902;2023-03-13T04:44:02;21.23;;;4.65;;
61025;SDS011;46911;32.650;-16.902;2023-03-13T04:46:03;17.25;;;3.70;;
61025;SDS011;46911;32.650;-16.902;2023-03-13T04:48:25;19.27;;;2.97;;
61025;SDS011;46911;32.650;-16.902;2023-03-13T04:50:54;18.67;;;3.40;;
61025;SDS011;46911;32.650;-16.902;2023-03-13T04:53:23;20.60;;;2.70;;
61025;SDS011;46911;32.650;-16.902;2023-03-13T04:55:54;14.75;;;3.28;;
61025;SDS011;46911;32.650;-16.902;2023-03-13T04:58:14;17.55;;;3.28;;
61025;SDS011;46911;32.650;-16.902;2023-03-13T05:00:38;14.45;;;3.00;;
61025;SDS011;46911;32.650;-16.902;2023-03-13T05:03:06;14.95;;;3.05;;
61025;SDS011;46911;32.650;-16.902;2023-03-13T05:05:22;18.83;;;2.95;;
61025;SDS011;46911;32.650;-16.902;2023-03-13T05:07:35;14.73;;;3.92;;
61025;SDS011;46911;32.650;-16.902;2023-03-13T05:09:58;16.27;;;3.85;;
61025;SDS011;46911;32.650;-16.902;2023-03-13T05:12:43;18.48;;;3.65;;
61025;SDS011;46911;32.650;-16.902;2023-03-13T05:14:51;16.67;;;2.80;;
61025;SDS011;46911;32.650;-16.902;2023-03-13T05:17:11;13.48;;;2.70;;
61025;SDS011;46911;32.650;-16.902;2023-03-13T05:19:47;20.30;;;2.72;;
61025;SDS011;46911;32.650;-16.902;2023-03-13T05:22:11;12.35;;;2.17;;
61025;SDS011;46911;32.650;-16.902;2023-03-13T05:24:29;12.82;;;3.58;;
61025;SDS011;46911;32.650;-16.902;2023-03-13T05:26:33;12.25;;;2.65;;
61025;SDS011;46911;32.650;-16.902;2023-03-13T05:28:57;19.77;;;3.00;;
61025;SDS011;46911;32.650;-16.902;2023-03-13T05:31:10;19.38;;;2.17;;
61025;SDS011;46911;32.650;-16.902;2023-03-13T05:33:34;16.60;;;3.10;;
61025;SDS011;46911;32.650;-16.902;2023-03-13T05:35:45;16.63;;;2.83;;
61025;SDS011;46911;32.650;-16.902;2023-03-13T05:37:55;14.43;;;3.17;;
61025;SDS011;46911;32.650;-16.902;2023-03-13T05:40:19;10.48;;;2.40;;
61025;SDS011;46911;32.650;-16.902;2023-03-13T05:42:55;18.60;;;3.20;;
61025;SDS011;46911;32.650;-16.902;2023-03-13T05:45:17;14.32;;;4.18;;
61025;SDS011;46911;32.650;-16.902;2023-03-13T05:47:37;12.90;;;2.60;;
61025;SDS011;46911;32.650;-16.902;2023-03-13T05:49:52;21.02;;;3.30;;
61025;SDS011;46911;32.650;-16.902;2023-03-13T05:52:25;18.75;;;3.78;;
61025;SDS011;46911;32.650;-16.902;2023-03-13T05:54:58;12.75;;;2.90;;
61025;SDS011;46911;32.650;-16.902;2023-03-13T05:57:20;15.60;;;3.42;;
61025;SDS011;46911;32.650;-16.902;2023-03-13T05:59:38;16.92;;;2.42;;
61025;SDS011;46911;32.650;-16.902;2023-03-13T06:01:57;13.48;;;2.15;;
61025;SDS011;46911;32.650;-16.902;2023-03-13T06:04:08;17.45;;;2.83;;
61025;SDS011;46911;32.650;-16.902;2023-03-13T06:06:13;19.33;;;3.90;;
61025;SDS011;46911;32.650;-16.902;2023-03-13T06:08:21;13.38;;;2.38;;
61025;SDS011;46911;32.650;-16.902;2023-03-13T06:10:24;21.58;;;3.17;;
61025;SDS011;46911;32.650;-16.902;2023-03-13T06:12:28;18.00;;;3.08;;
61025;SDS011;46911;32.650;-16.902;2023-03-13T06:14:31;13.43;;;2.67;;
61025;SDS011;46911;32.650;-16.902;2023-03-13T06:17:04;16.77;;;3.08;;
61025;SDS011;46911;32.650;-16.902;2023-03-13T06:19:08;22.88;;;2.92;;
61025;SDS011;46911;32.650;-16.902;2023-03-13T06:21:11;19.73;;;2.95;;
61025;SDS011;46911;32.650;-16.902;2023-03-13T06:23:12;16.15;;;2.95;;
61025;SDS011;46911;32.650;-16.902;2023-03-13T06:25:13;14.98;;;2.72;;
61025;SDS011;46911;32.650;-16.902;2023-03-13T06:27:16;15.13;;;2.13;;
61025;SDS011;46911;32.650;-16.902;2023-03-13T06:29:19;17.65;;;3.05;;
61025;SDS011;46911;32.650;-16.902;2023-03-13T06:31:25;13.73;;;2.47;;
61025;SDS011;46911;32.650;-16.902;2023-03-13T06:33:28;18.13;;;2.55;;
61025;SDS011;46911;32.650;-16.902;2023-03-13T06:35:30;17.23;;;2.72;;
61025;SDS011;46911;32.650;-16.902;2023-03-13T06:37:34;14.52;;;3.80;;
61025;SDS011;46911;32.650;-16.902;2023-03-13T06:39:35;9.27;;;2.13;;
61025;SDS011;46911;32.650;-16.902;2023-03-13T06:41:36;15.63;;;2.42;;
61025;SDS011;46911;32.650;-16.902;2023-03-13T06:43:37;16.20;;;2.70;;
61025;SDS011;46911;32.650;-16.902;2023-03-13T06:45:42;18.27;;;2.80;;
61025;SDS011;46911;32.650;-16.902;2023-03-13T06:47:43;13.30;;;2.45;;
61025;SDS011;46911;32.650;-16.902;2023-03-13T06:49:48;14.00;;;2.92;;
61025;SDS011;46911;32.650;-16.902;2023-03-13T06:51:52;19.48;;;2.53;;
61025;SDS011;46911;32.650;-16.902;2023-03-13T06:53:55;14.48;;;3.08;;
61025;SDS011;46911;32.650;-16.902;2023-03-13T06:55:59;12.10;;;3.10;;
61025;SDS011;46911;32.650;-16.902;2023-03-13T06:58:01;10.68;;;2.10;;
61025;SDS011;46911;32.650;-16.902;2023-03-13T07:00:02;14.57;;;2.80;;
61025;SDS011;46911;32.650;-16.902;2023-03-13T07:02:05;15.55;;;2.28;;
61025;SDS011;46911;32.650;-16.902;2023-03-13T07:04:07;19.48;;;2.88;;
61025;SDS011;46911;32.650;-16.902;2023-03-13T07:06:11;16.88;;;2.35;;
61025;SDS011;46911;32.650;-16.902;2023-03-13T07:08:12;10.52;;;2.33;;
61025;SDS011;46911;32.650;-16.902;2023-03-13T07:10:13;18.05;;;3.05;;
61025;SDS011;46911;32.650;-16.902;2023-03-13T07:12:14;10.13;;;2.75;;
61025;SDS011;46911;32.650;-16.902;2023-03-13T07:14:16;11.75;;;2.13;;
61025;SDS011;46911;32.650;-16.902;2023-03-13T07:16:17;15.30;;;2.83;;
61025;SDS011;46911;32.650;-16.902;2023-03-13T07:18:23;13.15;;;3.03;;
61025;SDS011;46911;32.650;-16.902;2023-03-13T07:20:23;28.90;;;3.30;;
61025;SDS011;46911;32.650;-16.902;2023-03-13T07:22:29;13.57;;;2.88;;
61025;SDS011;46911;32.650;-16.902;2023-03-13T07:24:30;8.57;;;2.13;;
61025;SDS011;46911;32.650;-16.902;2023-03-13T07:26:33;11.93;;;2.30;;
61025;SDS011;46911;32.650;-16.902;2023-03-13T07:28:37;11.25;;;2.42;;
61025;SDS011;46911;32.650;-16.902;2023-03-13T07:30:40;11.60;;;1.85;;
61025;SDS011;46911;32.650;-16.902;2023-03-13T07:32:41;15.43;;;2.80;;
61025;SDS011;46911;32.650;-16.902;2023-03-13T07:34:42;14.48;;;2.40;;
61025;SDS011;46911;32.650;-16.902;2023-03-13T07:36:46;16.48;;;3.15;;
61025;SDS011;46911;32.650;-16.902;2023-03-13T07:38:47;8.95;;;2.75;;
61025;SDS011;46911;32.650;-16.902;2023-03-13T07:40:53;9.93;;;2.20;;
61025;SDS011;46911;32.650;-16.902;2023-03-13T07:42:55;12.10;;;2.55;;
61025;SDS011;46911;32.650;-16.902;2023-03-13T07:45:01;10.80;;;2.50;;
61025;SDS011;46911;32.650;-16.902;2023-03-13T07:47:03;12.90;;;2.42;;
61025;SDS011;46911;32.650;-16.902;2023-03-13T07:49:06;7.57;;;1.80;;
61025;SDS011;46911;32.650;-16.902;2023-03-13T07:51:16;14.43;;;2.95;;
61025;SDS011;46911;32.650;-16.902;2023-03-13T07:53:19;14.40;;;3.03;;
61025;SDS011;46911;32.650;-16.902;2023-03-13T07:55:23;15.40;;;2.35;;
61025;SDS011;46911;32.650;-16.902;2023-03-13T07:57:24;14.15;;;3.35;;
61025;SDS011;46911;32.650;-16.902;2023-03-13T07:59:30;8.15;;;2.60;;
61025;SDS011;46911;32.650;-16.902;2023-03-13T08:01:33;9.88;;;2.42;;
61025;SDS011;46911;32.650;-16.902;2023-03-13T08:03:36;9.02;;;2.30;;
61025;SDS011;46911;32.650;-16.902;2023-03-13T08:05:38;10.57;;;2.42;;
61025;SDS011;46911;32.650;-16.902;2023-03-13T08:07:39;9.00;;;2.08;;
61025;SDS011;46911;32.650;-16.902;2023-03-13T08:09:42;12.45;;;2.30;;
61025;SDS011;46911;32.650;-16.902;2023-03-13T08:11:49;6.40;;;2.17;;
61025;SDS011;46911;32.650;-16.902;2023-03-13T08:13:51;5.82;;;2.10;;
61025;SDS011;46911;32.650;-16.902;2023-03-13T08:16:00;12.27;;;2.25;;
61025;SDS011;46911;32.650;-16.902;2023-03-13T08:18:11;7.85;;;2.10;;
61025;SDS011;46911;32.650;-16.902;2023-03-13T08:20:15;16.70;;;2.67;;
61025;SDS011;46911;32.650;-16.902;2023-03-13T08:22:20;10.63;;;2.20;;
61025;SDS011;46911;32.650;-16.902;2023-03-13T08:24:26;9.50;;;2.22;;
61025;SDS011;46911;32.650;-16.902;2023-03-13T08:26:30;15.75;;;2.03;;
61025;SDS011;46911;32.650;-16.902;2023-03-13T08:28:31;13.45;;;2.28;;
61025;SDS011;46911;32.650;-16.902;2023-03-13T08:30:37;7.38;;;2.20;;
61025;SDS011;46911;32.650;-16.902;2023-03-13T08:32:41;12.50;;;2.30;;
61025;SDS011;46911;32.650;-16.902;2023-03-13T08:34:42;8.52;;;2.58;;
61025;SDS011;46911;32.650;-16.902;2023-03-13T08:36:43;13.63;;;3.75;;
61025;SDS011;46911;32.650;-16.902;2023-03-13T08:38:47;10.13;;;2.70;;
61025;SDS011;46911;32.650;-16.902;2023-03-13T08:40:48;12.55;;;2.35;;
61025;SDS011;46911;32.650;-16.902;2023-03-13T08:42:55;15.07;;;2.40;;
61025;SDS011;46911;32.650;-16.902;2023-03-13T08:45:01;12.20;;;2.70;;
61025;SDS011;46911;32.650;-16.902;2023-03-13T08:47:04;9.88;;;2.03;;
61025;SDS011;46911;32.650;-16.902;2023-03-13T08:49:07;23.25;;;4.57;;
61025;SDS011;46911;32.650;-16.902;2023-03-13T08:51:14;10.98;;;2.65;;
61025;SDS011;46911;32.650;-16.902;2023-03-13T08:53:15;16.15;;;2.38;;
61025;SDS011;46911;32.650;-16.902;2023-03-13T08:55:21;9.90;;;2.13;;
61025;SDS011;46911;32.650;-16.902;2023-03-13T08:57:24;16.58;;;2.65;;
61025;SDS011;46911;32.650;-16.902;2023-03-13T08:59:25;18.83;;;2.83;;
61025;SDS011;46911;32.650;-16.902;2023-03-13T09:01:29;13.90;;;2.47;;
61025;SDS011;46911;32.650;-16.902;2023-03-13T09:03:35;16.23;;;2.63;;
61025;SDS011;46911;32.650;-16.902;2023-03-13T09:05:38;11.95;;;2.75;;
61025;SDS011;46911;32.650;-16.902;2023-03-13T09:07:39;15.55;;;3.17;;
61025;SDS011;46911;32.650;-16.902;2023-03-13T09:09:43;13.07;;;2.35;;
61025;SDS011;46911;32.650;-16.902;2023-03-13T09:11:44;17.42;;;2.80;;
61025;SDS011;46911;32.650;-16.902;2023-03-13T09:13:50;12.55;;;4.53;;
61025;SDS011;46911;32.650;-16.902;2023-03-13T09:15:58;15.93;;;3.35;;
61025;SDS011;46911;32.650;-16.902;2023-03-13T09:18:00;11.73;;;3.00;;
61025;SDS011;46911;32.650;-16.902;2023-03-13T09:20:01;14.10;;;2.28;;
61025;SDS011;46911;32.650;-16.902;2023-03-13T09:22:03;16.20;;;3.47;;
61025;SDS011;46911;32.650;-16.902;2023-03-13T09:24:04;12.70;;;2.50;;
61025;SDS011;46911;32.650;-16.902;2023-03-13T09:26:08;15.65;;;3.15;;
61025;SDS011;46911;32.650;-16.902;2023-03-13T09:28:12;19.42;;;2.92;;
61025;SDS011;46911;32.650;-16.902;2023-03-13T09:30:13;18.70;;;2.92;;
61025;SDS011;46911;32.650;-16.902;2023-03-13T09:32:17;15.52;;;3.00;;
61025;SDS011;46911;32.650;-16.902;2023-03-13T09:34:20;14.18;;;2.72;;
61025;SDS011;46911;32.650;-16.902;2023-03-13T09:36:25;21.13;;;3.60;;
61025;SDS011;46911;32.650;-16.902;2023-03-13T09:38:26;19.13;;;3.35;;
61025;SDS011;46911;32.650;-16.902;2023-03-13T09:40:28;21.80;;;3.28;;
61025;SDS011;46911;32.650;-16.902;2023-03-13T09:42:40;17.92;;;2.95;;
61025;SDS011;46911;32.650;-16.902;2023-03-13T09:44:48;14.27;;;2.35;;
61025;SDS011;46911;32.650;-16.902;2023-03-13T09:46:58;11.48;;;2.50;;
61025;SDS011;46911;32.650;-16.902;2023-03-13T09:49:47;13.73;;;2.67;;
61025;SDS011;46911;32.650;-16.902;2023-03-13T09:51:41;15.10;;;2.45;;
61025;SDS011;46911;32.650;-16.902;2023-03-13T09:56:01;11.60;;;2.60;;
61025;SDS011;46911;32.650;-16.902;2023-03-13T10:02:33;11.10;;;2.33;;
61025;SDS011;46911;32.650;-16.902;2023-03-13T10:04:55;17.10;;;2.70;;
61025;SDS011;46911;32.650;-16.902;2023-03-13T10:07:02;19.92;;;3.22;;
61025;SDS011;46911;32.650;-16.902;2023-03-13T10:09:20;10.38;;;2.65;;
61025;SDS011;46911;32.650;-16.902;2023-03-13T10:11:31;18.48;;;2.63;;
61025;SDS011;46911;32.650;-16.902;2023-03-13T10:15:57;10.07;;;2.42;;
61025;SDS011;46911;32.650;-16.902;2023-03-13T10:18:15;17.83;;;2.63;;
61025;SDS011;46911;32.650;-16.902;2023-03-13T10:20:27;12.52;;;2.35;;
61025;SDS011;46911;32.650;-16.902;2023-03-13T10:22:33;20.08;;;3.58;;
61025;SDS011;46911;32.650;-16.902;2023-03-13T10:24:41;11.57;;;2.67;;
61025;SDS011;46911;32.650;-16.902;2023-03-13T10:26:52;14.57;;;2.90;;
61025;SDS011;46911;32.650;-16.902;2023-03-13T10:28:56;17.95;;;3.42;;
61025;SDS011;46911;32.650;-16.902;2023-03-13T10:31:13;11.27;;;2.55;;
61025;SDS011;46911;32.650;-16.902;2023-03-13T10:33:25;8.73;;;2.15;;
61025;SDS011;46911;32.650;-16.902;2023-03-13T10:35:37;16.90;;;2.42;;
61025;SDS011;46911;32.650;-16.902;2023-03-13T10:37:44;10.50;;;2.30;;
61025;SDS011;46911;32.650;-16.902;2023-03-13T10:39:45;15.10;;;2.75;;
61025;SDS011;46911;32.650;-16.902;2023-03-13T10:41:47;11.68;;;2.05;;
61025;SDS011;46911;32.650;-16.902;2023-03-13T10:43:54;12.13;;;2.40;;
61025;SDS011;46911;32.650;-16.902;2023-03-13T10:46:00;11.57;;;2.30;;
61025;SDS011;46911;32.650;-16.902;2023-03-13T10:50:18;13.98;;;3.30;;
61025;SDS011;46911;32.650;-16.902;2023-03-13T10:52:33;21.67;;;2.28;;
61025;SDS011;46911;32.650;-16.902;2023-03-13T10:56:53;14.50;;;2.30;;
61025;SDS011;46911;32.650;-16.902;2023-03-13T10:59:22;9.85;;;2.00;;
61025;SDS011;46911;32.650;-16.902;2023-03-13T11:01:38;14.52;;;2.70;;
61025;SDS011;46911;32.650;-16.902;2023-03-13T11:03:44;11.50;;;2.10;;
61025;SDS011;46911;32.650;-16.902;2023-03-13T11:05:56;7.32;;;1.88;;
61025;SDS011;46911;32.650;-16.902;2023-03-13T11:08:20;16.35;;;2.40;;
61025;SDS011;46911;32.650;-16.902;2023-03-13T11:10:30;16.95;;;2.00;;
61025;SDS011;46911;32.650;-16.902;2023-03-13T11:12:36;13.60;;;2.75;;
61025;SDS011;46911;32.650;-16.902;2023-03-13T11:14:55;12.80;;;2.40;;
61025;SDS011;46911;32.650;-16.902;2023-03-13T11:19:19;9.65;;;2.38;;
61025;SDS011;46911;32.650;-16.902;2023-03-13T11:23:50;14.63;;;3.10;;
61025;SDS011;46911;32.650;-16.902;2023-03-13T11:30:44;12.95;;;2.10;;
61025;SDS011;46911;32.650;-16.902;2023-03-13T11:32:50;17.20;;;2.63;;
61025;SDS011;46911;32.650;-16.902;2023-03-13T11:34:56;7.75;;;1.65;;
61025;SDS011;46911;32.650;-16.902;2023-03-13T11:37:16;12.63;;;2.65;;
61025;SDS011;46911;32.650;-16.902;2023-03-13T11:41:44;10.13;;;2.50;;
61025;SDS011;46911;32.650;-16.902;2023-03-13T11:48:50;10.50;;;2.88;;
61025;SDS011;46911;32.650;-16.902;2023-03-13T11:51:07;12.18;;;2.42;;
61025;SDS011;46911;32.650;-16.902;2023-03-13T12:00:35;12.20;;;2.85;;
61025;SDS011;46911;32.650;-16.902;2023-03-13T12:02:46;8.57;;;2.60;;
61025;SDS011;46911;32.650;-16.902;2023-03-13T12:04:55;13.75;;;2.70;;
61025;SDS011;46911;32.650;-16.902;2023-03-13T12:07:09;7.90;;;2.15;;
61025;SDS011;46911;32.650;-16.902;2023-03-13T12:09:25;8.13;;;2.33;;
61025;SDS011;46911;32.650;-16.902;2023-03-13T12:16:11;13.77;;;2.72;;
61025;SDS011;46911;32.650;-16.902;2023-03-13T12:20:25;11.55;;;3.13;;
61025;SDS011;46911;32.650;-16.902;2023-03-13T12:22:31;18.15;;;3.35;;
61025;SDS011;46911;32.650;-16.902;2023-03-13T12:24:45;8.75;;;2.58;;
61025;SDS011;46911;32.650;-16.902;2023-03-13T12:26:53;13.23;;;2.75;;
61025;SDS011;46911;32.650;-16.902;2023-03-13T12:33:52;13.10;;;3.00;;
61025;SDS011;46911;32.650;-16.902;2023-03-13T12:36:17;11.35;;;2.70;;
61025;SDS011;46911;32.650;-16.902;2023-03-13T12:38:25;12.48;;;2.88;;
61025;SDS011;46911;32.650;-16.902;2023-03-13T12:40:34;10.80;;;2.10;;
61025;SDS011;46911;32.650;-16.902;2023-03-13T12:43:24;15.07;;;2.47;;
61025;SDS011;46911;32.650;-16.902;2023-03-13T12:45:20;9.98;;;2.13;;
61025;SDS011;46911;32.650;-16.902;2023-03-13T12:47:32;17.40;;;2.95;;
61025;SDS011;46911;32.650;-16.902;2023-03-13T12:52:42;9.10;;;2.10;;
61025;SDS011;46911;32.650;-16.902;2023-03-13T12:55:12;13.32;;;3.25;;
61025;SDS011;46911;32.650;-16.902;2023-03-13T12:59:54;13.23;;;2.75;;
61025;SDS011;46911;32.650;-16.902;2023-03-13T13:02:02;11.82;;;2.95;;
61025;SDS011;46911;32.650;-16.902;2023-03-13T13:04:20;11.48;;;2.55;;
61025;SDS011;46911;32.650;-16.902;2023-03-13T13:06:51;9.60;;;2.22;;
61025;SDS011;46911;32.650;-16.902;2023-03-13T13:13:34;17.73;;;2.60;;
61025;SDS011;46911;32.650;-16.902;2023-03-13T13:15:56;12.32;;;3.50;;
61025;SDS011;46911;32.650;-16.902;2023-03-13T13:18:43;19.27;;;3.30;;
61025;SDS011;46911;32.650;-16.902;2023-03-13T13:20:38;13.07;;;3.20;;
61025;SDS011;46911;32.650;-16.902;2023-03-13T13:22:45;15.90;;;3.72;;
61025;SDS011;46911;32.650;-16.902;2023-03-13T13:24:50;16.65;;;3.72;;